Time;durP1;ratioP1;P1;durP2;ratioP2;P2;SDS_P1;SDS_P2;PMS_P1;PMS_P2;Temp;Humidity;BMP_temperature;BMP_pressure;BME280_temperature;BME280_humidity;BME280_pressure;Samples;Min_cycle;Max_cycle;Signal;HPM_P1;HPM_P2
2022/01/21 00:01:07;;;;;;;51.17;23.33;;;;;;;0.95;94.50;99399.50;5090224;28;20286;-58
2022/01/21 00:03:35;;;;;;;48.50;25.33;;;;;;;0.90;95.97;99397.78;5090033;28;20198;-58
2022/01/21 00:06:02;;;;;;;43.97;24.47;;;;;;;0.90;95.83;99401.19;5090294;28;20221;-58
2022/01/21 00:08:29;;;;;;;48.93;25.43;;;;;;;0.94;96.07;99402.91;5093113;28;20255;-58
2022/01/21 00:10:56;;;;;;;51.97;25.60;;;;;;;1.01;95.15;99419.16;5094004;28;20216;-58
2022/01/21 00:13:33;;;;;;;56.93;27.40;;;;;;;1.00;95.15;99413.19;5094299;28;20290;-58
2022/01/21 00:16:00;;;;;;;46.10;24.47;;;;;;;1.04;94.58;99406.38;5094574;28;20631;-59
2022/01/21 00:18:28;;;;;;;57.03;27.30;;;;;;;1.07;94.75;99414.06;5094318;28;20196;-59
2022/01/21 00:31:53;;;;;;;79.10;38.17;;;;;;;1.20;94.53;99415.03;5094006;28;20241;-58
2022/01/21 00:34:22;;;;;;;87.93;40.87;;;;;;;1.27;93.75;99412.50;5094041;28;20191;-59
2022/01/21 00:36:49;;;;;;;89.53;43.00;;;;;;;1.28;93.50;99401.44;5093887;28;20191;-59
2022/01/21 00:39:17;;;;;;;86.60;40.93;;;;;;;1.32;93.36;99405.75;5093973;28;20195;-58
2022/01/21 00:41:54;;;;;;;78.87;40.70;;;;;;;1.28;93.84;99388.66;5093571;28;20218;-59
2022/01/21 00:44:21;;;;;;;90.80;42.13;;;;;;;1.27;94.01;99389.50;5093769;28;20214;-59
2022/01/21 00:46:49;;;;;;;96.83;42.83;;;;;;;1.34;93.19;99386.16;5093925;28;20199;-58
2022/01/21 00:49:16;;;;;;;94.73;43.07;;;;;;;1.34;93.45;99388.72;5093764;28;20203;-58
2022/01/21 00:51:44;;;;;;;96.27;43.40;;;;;;;1.44;93.64;99380.25;5093592;28;20590;-55
2022/01/21 00:54:11;;;;;;;96.50;41.83;;;;;;;1.38;93.21;99379.34;5093452;28;20191;-56
2022/01/21 00:56:38;;;;;;;85.83;40.70;;;;;;;1.24;95.49;99374.13;5093716;28;20198;-55
2022/01/21 00:59:05;;;;;;;84.03;38.30;;;;;;;1.32;95.23;99372.50;5093408;28;20203;-55
2022/01/21 01:01:32;;;;;;;72.17;36.13;;;;;;;1.36;93.94;99381.03;5093760;28;20580;-55
2022/01/21 01:03:59;;;;;;;68.17;33.40;;;;;;;1.25;94.98;99373.28;5093379;28;20195;-59
2022/01/21 01:06:27;;;;;;;69.47;32.37;;;;;;;1.22;95.34;99363.06;5093674;28;20191;-59
2022/01/21 01:08:55;;;;;;;59.13;29.80;;;;;;;1.18;95.96;99369.00;5093533;28;20760;-58
2022/01/21 01:11:31;;;;;;;59.27;28.83;;;;;;;1.03;95.46;99343.31;5092749;28;20236;-59
2022/01/21 01:22:13;;;;;;;56.23;27.40;;;;;;;0.99;96.16;99364.63;5093229;28;20198;-59
2022/01/21 01:27:41;;;;;;;50.83;26.40;;;;;;;1.08;95.85;99354.44;5093265;28;20734;-58
2022/01/21 01:30:11;;;;;;;51.20;26.77;;;;;;;1.03;95.75;99353.53;5093105;28;20218;-55
2022/01/21 01:32:39;;;;;;;56.17;27.50;;;;;;;1.11;94.84;99348.50;5093181;28;20648;-54
2022/01/21 01:35:08;;;;;;;61.63;30.30;;;;;;;1.07;94.44;99339.97;5093027;28;20204;-55
2022/01/21 01:37:55;;;;;;;61.93;31.10;;;;;;;0.95;95.52;99371.41;5092867;28;20193;-55
2022/01/21 01:40:27;;;;;;;65.30;26.87;;;;;;;0.97;96.38;99384.19;5092825;28;20191;-54
2022/01/21 01:43:23;;;;;;;52.33;27.97;;;;;;;0.95;96.39;99396.09;5092772;28;20195;-59
2022/01/21 01:51:18;;;;;;;55.10;26.33;;;;;;;1.05;96.06;99415.75;5092304;28;20195;-58
2022/01/21 01:53:50;;;;;;;51.63;26.17;;;;;;;1.14;95.60;99397.06;5092276;28;20195;-59
2022/01/21 01:56:21;;;;;;;52.70;26.00;;;;;;;1.00;95.72;99384.22;5092576;28;20231;-59
2022/01/21 01:58:48;;;;;;;46.20;24.33;;;;;;;0.93;97.02;99390.97;5092591;28;20303;-58
2022/01/21 02:01:15;;;;;;;51.20;23.97;;;;;;;1.06;96.69;99381.69;5092144;28;20282;-55
2022/01/21 02:03:42;;;;;;;41.87;24.07;;;;;;;1.20;96.82;99392.88;5091884;28;20558;-54
2022/01/21 02:06:09;;;;;;;43.43;22.97;;;;;;;1.23;95.32;99380.13;5092279;28;20195;-55
2022/01/21 02:08:36;;;;;;;42.33;23.27;;;;;;;1.29;96.17;99392.06;5092121;28;20218;-54
2022/01/21 02:11:04;;;;;;;45.23;23.53;;;;;;;1.25;96.04;99403.97;5092272;28;20200;-55
2022/01/21 02:13:38;;;;;;;39.83;22.90;;;;;;;1.28;94.89;99414.22;5092407;28;20589;-54
2022/01/21 02:16:12;;;;;;;39.30;21.40;;;;;;;1.30;94.73;99407.44;5091990;28;20195;-54
2022/01/21 02:21:42;;;;;;;43.43;21.00;;;;;;;1.15;96.38;99406.44;5049672;28;20197;-55
2022/01/21 02:24:14;;;;;;;42.83;21.77;;;;;;;1.17;96.96;99415.84;5049293;28;20729;-54
2022/01/21 02:26:41;;;;;;;35.37;19.80;;;;;;;1.18;96.70;99416.72;5070218;28;20197;-59
2022/01/21 02:29:10;;;;;;;32.13;19.90;;;;;;;1.17;97.98;99415.84;5091790;28;20219;-58
2022/01/21 02:31:39;;;;;;;34.30;19.43;;;;;;;1.17;98.08;99427.78;5091247;28;20720;-59
2022/01/21 02:34:08;;;;;;;34.97;19.37;;;;;;;1.26;97.73;99426.13;5091628;28;20235;-58
2022/01/21 02:36:35;;;;;;;41.70;20.40;;;;;;;1.28;97.70;99411.66;5091862;28;20632;-58
2022/01/21 02:39:04;;;;;;;37.47;20.93;;;;;;;1.25;98.06;99410.78;5091624;28;20200;-54
2022/01/21 02:41:31;;;;;;;35.37;20.13;;;;;;;1.18;97.90;99417.56;5091875;28;20195;-55
2022/01/21 02:43:59;;;;;;;32.30;20.30;;;;;;;1.19;97.83;99419.28;5091719;28;20199;-55
2022/01/21 02:46:26;;;;;;;37.33;20.97;;;;;;;1.05;98.43;99405.53;5091443;28;20251;-55
2022/01/21 02:48:53;;;;;;;35.43;20.17;;;;;;;1.27;97.00;99402.28;5091486;28;20222;-54
2022/01/21 02:51:21;;;;;;;37.33;21.50;;;;;;;1.33;97.45;99417.69;5091424;28;20263;-55
2022/01/21 02:54:06;;;;;;;39.40;21.80;;;;;;;1.34;96.83;99409.16;5091568;28;20192;-55
2022/01/21 02:56:36;;;;;;;38.50;22.00;;;;;;;1.37;96.38;99401.50;5091468;28;20249;-55
2022/01/21 02:59:03;;;;;;;41.20;22.83;;;;;;;1.38;95.20;99408.31;5091459;28;20209;-55
2022/01/21 03:01:33;;;;;;;38.20;22.90;;;;;;;1.41;94.42;99393.00;5091221;28;20202;-55
2022/01/21 03:04:00;;;;;;;46.03;24.17;;;;;;;1.47;94.49;99388.78;5090916;28;20233;-53
2022/01/21 03:06:28;;;;;;;45.07;24.00;;;;;;;1.54;93.43;99386.25;5091084;28;20214;-54
2022/01/21 03:08:58;;;;;;;42.20;23.43;;;;;;;1.64;93.56;99380.34;5090958;28;20224;-54
2022/01/21 03:11:27;;;;;;;57.17;23.67;;;;;;;1.72;92.83;99373.53;5090932;28;20227;-54
2022/01/21 03:13:55;;;;;;;39.57;22.03;;;;;;;1.89;91.33;99381.31;5090974;28;20195;-54
2022/01/21 03:16:25;;;;;;;43.13;23.37;;;;;;;2.01;91.03;99389.03;5090727;28;20282;-54
2022/01/21 03:18:52;;;;;;;42.83;23.60;;;;;;;2.04;91.29;99381.34;5090801;28;20231;-58
2022/01/21 03:21:19;;;;;;;47.23;23.50;;;;;;;2.06;90.50;99371.97;5090829;28;20290;-59
2022/01/21 03:23:48;;;;;;;39.97;22.47;;;;;;;2.13;90.54;99383.94;5091038;28;20195;-54
2022/01/21 03:26:16;;;;;;;48.37;21.93;;;;;;;2.09;90.46;99392.47;5091035;28;20584;-59
2022/01/21 03:28:44;;;;;;;37.33;21.10;;;;;;;1.99;90.44;99388.16;5090696;28;20707;-59
2022/01/21 03:31:12;;;;;;;39.30;22.00;;;;;;;1.98;90.74;99378.78;5090754;28;20668;-59
2022/01/21 03:33:39;;;;;;;39.97;22.53;;;;;;;1.96;90.36;99375.34;5090784;28;20710;-58
2022/01/21 03:36:08;;;;;;;41.27;20.80;;;;;;;1.97;91.01;99386.44;5090514;28;20195;-59
2022/01/21 03:38:35;;;;;;;40.07;21.20;;;;;;;2.08;90.24;99375.38;5090715;28;20234;-59
2022/01/21 03:41:02;;;;;;;36.00;21.10;;;;;;;2.10;90.66;99370.28;5090360;28;20196;-59
2022/01/21 03:43:29;;;;;;;40.37;21.27;;;;;;;2.32;89.16;99377.16;5090328;28;20197;-57
2022/01/21 03:45:56;;;;;;;38.93;21.67;;;;;;;2.39;88.56;99386.53;5090191;28;20206;-58
2022/01/21 03:48:25;;;;;;;36.00;20.57;;;;;;;2.35;89.20;99394.25;5090590;28;20749;-55
2022/01/21 03:50:53;;;;;;;36.90;20.90;;;;;;;2.26;89.05;99389.94;5090342;28;20206;-54
2022/01/21 03:53:21;;;;;;;39.63;19.10;;;;;;;2.39;87.72;99393.38;5090317;28;20203;-54
2022/01/21 03:55:48;;;;;;;33.53;19.07;;;;;;;2.46;86.79;99387.44;5090236;28;20195;-54
2022/01/21 03:58:15;;;;;;;30.20;17.70;;;;;;;2.61;86.03;99390.00;5090251;28;20282;-54
2022/01/21 04:00:45;;;;;;;34.63;18.47;;;;;;;2.56;84.71;99381.47;5090066;28;20195;-55
2022/01/21 04:03:12;;;;;;;32.13;18.03;;;;;;;2.74;83.58;99394.28;5089624;28;20714;-54
2022/01/21 04:05:41;;;;;;;26.27;16.77;;;;;;;2.69;82.83;99385.75;5088866;28;20677;-54
2022/01/21 04:08:09;;;;;;;29.33;17.20;;;;;;;2.83;81.83;99390.84;5088942;28;20222;-54
2022/01/21 04:10:39;;;;;;;28.20;16.77;;;;;;;3.04;80.42;99383.19;5089053;28;20194;-54
2022/01/21 04:13:13;;;;;;;29.43;17.33;;;;;;;3.06;79.99;99401.09;5088614;28;20663;-55
2022/01/21 04:15:40;;;;;;;30.07;16.37;;;;;;;3.10;80.18;99392.56;5086140;28;20219;-55
2022/01/21 04:18:07;;;;;;;32.50;17.57;;;;;;;3.04;80.78;99390.03;5088899;28;20196;-55
2022/01/21 04:20:34;;;;;;;39.17;21.57;;;;;;;2.99;83.30;99373.78;5088509;28;20209;-55
2022/01/21 04:23:03;;;;;;;46.30;21.90;;;;;;;3.03;84.11;99368.66;5088641;28;20209;-55
2022/01/21 04:25:30;;;;;;;43.73;22.00;;;;;;;2.93;85.85;99372.91;5088579;28;20200;-55
2022/01/21 04:27:57;;;;;;;49.03;22.60;;;;;;;2.95;86.52;99354.13;5088617;28;20274;-59
2022/01/21 04:30:24;;;;;;;47.63;21.63;;;;;;;2.88;86.65;99348.16;5088693;28;20196;-59
2022/01/21 04:32:51;;;;;;;45.70;22.17;;;;;;;2.90;86.72;99339.63;5088710;28;20278;-59
2022/01/21 04:35:18;;;;;;;49.93;26.13;;;;;;;2.89;86.97;99337.03;5085731;28;20197;-58
2022/01/21 04:37:51;;;;;;;46.90;25.50;;;;;;;2.95;86.43;99336.16;5088508;28;20285;-58
2022/01/21 04:40:23;;;;;;;47.27;25.87;;;;;;;2.92;86.30;99332.78;5086197;28;20215;-59
2022/01/21 04:48:19;;;;;;;68.73;31.90;;;;;;;2.74;98.34;99383.16;5086336;28;20781;-59
2022/01/21 04:50:54;;;;;;;70.03;35.47;;;;;;;2.68;94.93;99401.97;5089428;28;20227;-54
2022/01/21 04:53:21;;;;;;;67.27;33.07;;;;;;;2.59;97.04;99399.41;5089864;28;20573;-54
2022/01/21 04:55:50;;;;;;;75.67;31.97;;;;;;;2.63;97.86;99410.50;5092306;28;20780;-53
2022/01/21 04:58:17;;;;;;;49.17;25.67;;;;;;;2.45;99.01;99412.19;5093199;28;20199;-54
2022/01/21 05:00:45;;;;;;;58.13;26.03;;;;;;;2.38;96.10;99414.72;5092613;28;20303;-54
2022/01/21 05:03:11;;;;;;;49.27;25.53;;;;;;;2.34;96.14;99423.25;5093560;28;20199;-53
2022/01/21 05:05:38;;;;;;;47.53;25.37;;;;;;;2.25;96.89;99425.81;5093189;28;20291;-54
2022/01/21 05:08:09;;;;;;;47.43;25.93;;;;;;;2.25;96.08;99428.34;5092843;28;20273;-57
2022/01/21 05:10:36;;;;;;;49.57;27.00;;;;;;;2.19;97.23;99427.47;5093399;28;20206;-58
2022/01/21 05:13:07;;;;;;;44.80;26.03;;;;;;;2.19;96.83;99431.75;5092159;28;20305;-54
2022/01/21 05:15:57;;;;;;;47.87;25.10;;;;;;;2.07;97.58;99432.56;5093455;28;20199;-54
2022/01/21 05:18:24;;;;;;;47.57;24.87;;;;;;;2.24;97.12;99437.75;5093306;28;20191;-54
2022/01/21 05:20:51;;;;;;;56.40;27.67;;;;;;;2.34;97.04;99456.56;5093265;28;20202;-54
2022/01/21 05:23:18;;;;;;;58.23;29.40;;;;;;;2.30;97.78;99453.13;5093019;28;20200;-55
2022/01/21 05:25:45;;;;;;;47.37;25.70;;;;;;;2.41;96.18;99454.00;5092760;28;20205;-54
2022/01/21 05:28:13;;;;;;;58.67;25.60;;;;;;;2.46;96.88;99465.13;5088114;28;20287;-54
2022/01/21 05:30:40;;;;;;;50.20;27.67;;;;;;;2.41;97.41;99476.19;5088465;28;20226;-58
2022/01/21 05:33:07;;;;;;;49.23;28.03;;;;;;;2.52;96.82;99477.09;5075349;28;20204;-59
2022/01/21 05:35:34;;;;;;;53.47;26.70;;;;;;;2.56;97.21;99489.06;5072541;28;20197;-59
2022/01/21 05:38:01;;;;;;;53.93;26.77;;;;;;;2.51;98.69;99485.63;5072544;28;20196;-55
2022/01/21 05:40:28;;;;;;;49.80;28.50;;;;;;;2.54;98.89;99498.44;5072477;28;20211;-55
2022/01/21 05:42:55;;;;;;;55.63;31.43;;;;;;;2.50;100.00;99502.69;5072422;28;20197;-55
2022/01/21 05:48:07;;;;;;;63.17;31.97;;;;;;;2.50;100.00;99506.97;5072510;28;20198;-58
2022/01/21 05:50:34;;;;;;;62.37;31.10;;;;;;;2.44;100.00;99517.19;5072272;28;20224;-58
2022/01/21 05:53:05;;;;;;;61.60;32.00;;;;;;;2.49;100.00;99520.63;5072125;28;20197;-59
2022/01/21 05:55:32;;;;;;;65.87;33.53;;;;;;;2.55;100.00;99530.91;5072243;28;20196;-58
2022/01/21 05:57:59;;;;;;;63.63;32.77;;;;;;;2.52;100.00;99521.50;5072096;28;20292;-58
2022/01/21 06:00:27;;;;;;;63.97;33.87;;;;;;;2.60;100.00;99533.50;5072146;28;20195;-58
2022/01/21 06:02:54;;;;;;;63.83;34.07;;;;;;;2.69;100.00;99534.38;5072005;28;20204;-58
2022/01/21 06:05:21;;;;;;;63.53;33.33;;;;;;;2.75;100.00;99541.22;5070631;28;20197;-59
2022/01/21 06:07:48;;;;;;;60.40;31.73;;;;;;;2.71;100.00;99547.19;5072152;28;20623;-59
2022/01/21 06:10:15;;;;;;;54.67;30.77;;;;;;;2.79;100.00;99555.75;5072088;28;20244;-58
2022/01/21 06:12:42;;;;;;;56.87;28.00;;;;;;;2.74;100.00;99555.72;5071929;28;20590;-58
2022/01/21 06:15:10;;;;;;;53.70;28.83;;;;;;;2.79;100.00;99561.75;5074459;28;20239;-58
2022/01/21 06:17:38;;;;;;;48.10;26.60;;;;;;;2.85;100.00;99572.00;5091308;28;20729;-58
2022/01/21 06:20:06;;;;;;;49.93;27.00;;;;;;;2.86;100.00;99567.72;5089596;28;20323;-58
2022/01/21 06:22:33;;;;;;;44.87;25.60;;;;;;;2.94;100.00;99573.72;5089904;28;20731;-58
2022/01/21 06:25:00;;;;;;;50.63;27.67;;;;;;;2.97;100.00;99567.75;5089711;28;20701;-59
2022/01/21 06:27:28;;;;;;;51.13;28.10;;;;;;;2.99;100.00;99574.59;5089593;28;20220;-58
2022/01/21 06:29:56;;;;;;;56.13;29.10;;;;;;;2.87;100.00;99582.25;5087066;28;20231;-59
2022/01/21 06:32:25;;;;;;;54.90;29.53;;;;;;;2.73;100.00;99578.78;5089775;28;20213;-59
2022/01/21 06:34:53;;;;;;;56.07;30.20;;;;;;;2.62;100.00;99594.13;5089725;28;20246;-58
2022/01/21 06:37:20;;;;;;;51.90;29.33;;;;;;;2.56;100.00;99594.09;5090265;28;20639;-59
2022/01/21 06:39:47;;;;;;;59.77;29.83;;;;;;;2.59;100.00;99591.56;5091615;28;20200;-59
2022/01/21 06:42:14;;;;;;;55.30;28.67;;;;;;;2.59;100.00;99603.53;5091540;28;20241;-54
2022/01/21 06:44:41;;;;;;;58.47;30.37;;;;;;;2.63;100.00;99603.53;5091239;28;20196;-54
2022/01/21 06:47:08;;;;;;;52.27;27.00;;;;;;;2.71;100.00;99614.66;5091161;28;20199;-57
2022/01/21 06:49:35;;;;;;;46.00;24.90;;;;;;;2.71;100.00;99619.78;5091275;28;20259;-60
2022/01/21 06:52:04;;;;;;;43.70;24.60;;;;;;;2.91;100.00;99618.19;5091279;28;20707;-59
2022/01/21 06:54:31;;;;;;;38.83;22.00;;;;;;;2.91;100.00;99622.44;5091362;28;20194;-60
2022/01/21 06:56:58;;;;;;;33.87;19.97;;;;;;;3.07;100.00;99623.34;5081159;28;20218;-59
2022/01/21 06:59:25;;;;;;;24.37;16.40;;;;;;;3.13;100.00;99628.50;5090060;28;20230;-55
2022/01/21 07:01:52;;;;;;;25.27;16.00;;;;;;;3.18;100.00;99632.78;5091164;28;20595;-54
2022/01/21 07:04:19;;;;;;;20.93;14.57;;;;;;;3.25;100.00;99628.53;5090677;28;20207;-55
2022/01/21 07:06:46;;;;;;;21.43;13.47;;;;;;;3.25;100.00;99637.09;5090908;28;20206;-55
2022/01/21 07:09:14;;;;;;;19.27;11.97;;;;;;;3.21;100.00;99616.53;5089947;28;20572;-55
2022/01/21 07:11:41;;;;;;;12.40;9.57;;;;;;;3.23;100.00;99640.50;5073103;28;20240;-59
2022/01/21 07:14:08;;;;;;;10.97;8.37;;;;;;;3.24;100.00;99652.47;5083863;28;20693;-58
2022/01/21 07:16:35;;;;;;;12.30;8.30;;;;;;;3.21;100.00;99650.75;5085837;28;20220;-57
2022/01/21 07:19:02;;;;;;;14.33;8.80;;;;;;;3.16;100.00;99643.91;5088737;28;20229;-59
2022/01/21 07:21:28;;;;;;;11.03;7.53;;;;;;;3.25;100.00;99654.19;5088730;28;20225;-58
2022/01/21 07:23:55;;;;;;;13.63;8.93;;;;;;;3.13;100.00;99665.25;5089580;28;20215;-58
2022/01/21 07:26:24;;;;;;;12.10;8.23;;;;;;;3.17;100.00;99677.22;5090058;28;20325;-58
2022/01/21 07:28:51;;;;;;;11.13;7.80;;;;;;;3.07;100.00;99679.75;5090100;28;20666;-58
2022/01/21 07:31:18;;;;;;;7.23;6.53;;;;;;;2.97;100.00;99672.88;5090317;28;20617;-58
2022/01/21 07:33:44;;;;;;;7.10;5.63;;;;;;;2.93;100.00;99692.53;5089598;28;20302;-59
2022/01/21 07:36:11;;;;;;;8.97;6.37;;;;;;;2.95;100.00;99693.38;5089914;28;20257;-57
2022/01/21 07:38:40;;;;;;;6.60;5.90;;;;;;;2.87;100.00;99697.63;5089984;28;20233;-58
2022/01/21 07:41:07;;;;;;;4.50;4.13;;;;;;;2.87;100.00;99703.59;5087253;28;20295;-58
2022/01/21 07:43:35;;;;;;;5.50;4.73;;;;;;;2.88;100.00;99701.88;5086406;28;20286;-59
2022/01/21 07:46:02;;;;;;;7.37;5.20;;;;;;;2.75;100.00;99712.94;5087359;28;20198;-59
2022/01/21 07:48:29;;;;;;;8.47;4.90;;;;;;;2.80;100.00;99703.56;5089794;28;20646;-58
2022/01/21 07:50:56;;;;;;;4.97;4.50;;;;;;;2.73;100.00;99707.78;5089198;28;20219;-58
2022/01/21 07:53:23;;;;;;;5.23;4.30;;;;;;;2.63;100.00;99716.28;5089972;28;20233;-58
2022/01/21 07:55:51;;;;;;;4.93;4.37;;;;;;;2.54;100.00;99709.38;5089992;28;20191;-55
2022/01/21 07:58:18;;;;;;;8.67;5.57;;;;;;;2.68;100.00;99700.94;5089385;28;20200;-54
2022/01/21 08:00:46;;;;;;;17.27;11.37;;;;;;;2.73;100.00;99705.22;5089687;28;20215;-54
2022/01/21 08:03:14;;;;;;;32.87;17.97;;;;;;;2.65;100.00;99701.75;5076823;28;20225;-58
2022/01/21 08:05:43;;;;;;;28.60;16.77;;;;;;;2.70;100.00;99701.81;5069268;28;20286;-59
2022/01/21 08:08:10;;;;;;;19.00;10.33;;;;;;;2.83;100.00;99699.28;5075250;28;20291;-59
2022/01/21 08:10:37;;;;;;;16.73;8.60;;;;;;;2.77;100.00;99709.53;5067868;28;20684;-55
2022/01/21 08:13:04;;;;;;;9.23;8.20;;;;;;;2.96;100.00;99712.19;5069242;28;20234;-55
2022/01/21 08:15:31;;;;;;;13.23;7.50;;;;;;;3.05;100.00;99714.81;5071211;28;20206;-54
2022/01/21 08:17:59;;;;;;;7.30;5.97;;;;;;;3.12;100.00;99709.69;5089644;28;20196;-55
2022/01/21 08:20:26;;;;;;;5.20;4.70;;;;;;;3.21;100.00;99714.00;5089689;28;20203;-56
2022/01/21 08:22:53;;;;;;;5.10;4.10;;;;;;;3.32;100.00;99727.72;5073825;28;20300;-54
2022/01/21 08:25:20;;;;;;;3.83;3.43;;;;;;;3.35;100.00;99732.03;5088434;28;20283;-55
2022/01/21 08:27:48;;;;;;;4.07;3.50;;;;;;;3.44;100.00;99740.59;5089576;28;20205;-54
2022/01/21 08:30:15;;;;;;;5.10;3.33;;;;;;;3.48;100.00;99736.34;5093067;28;20220;-55
2022/01/21 08:32:42;;;;;;;3.37;2.30;;;;;;;3.46;100.00;99735.47;5093743;28;20197;-55
2022/01/21 08:35:11;;;;;;;3.33;2.60;;;;;;;3.49;100.00;99746.63;5093578;28;20296;-55
2022/01/21 08:37:38;;;;;;;5.00;2.70;;;;;;;3.46;100.00;99746.59;5093547;28;20202;-54
2022/01/21 08:40:07;;;;;;;4.30;2.30;;;;;;;3.50;100.00;99750.03;5093558;28;20615;-59
2022/01/21 08:42:34;;;;;;;4.57;2.77;;;;;;;3.44;100.00;99753.44;5093506;28;20284;-59
2022/01/21 08:45:01;;;;;;;3.67;3.30;;;;;;;3.48;100.00;99764.56;5093475;28;20227;-59
2022/01/21 08:47:28;;;;;;;3.07;2.77;;;;;;;3.42;100.00;99767.09;5093500;28;20602;-59
2022/01/21 08:49:56;;;;;;;2.83;2.53;;;;;;;3.32;100.00;99737.13;5086622;28;20220;-59
2022/01/21 08:52:27;;;;;;;3.47;2.93;;;;;;;3.53;100.00;99768.00;5071918;28;20228;-58
2022/01/21 08:54:54;;;;;;;2.37;2.17;;;;;;;3.43;100.00;99768.81;5088637;28;20286;-58
2022/01/21 08:57:22;;;;;;;2.63;2.43;;;;;;;3.90;100.00;99774.97;5093328;28;20288;-61
2022/01/21 08:59:49;;;;;;;4.20;2.13;;;;;;;3.71;100.00;99786.03;5092780;28;20195;-55
2022/01/21 09:02:18;;;;;;;4.13;1.77;;;;;;;3.54;100.00;99787.69;5093153;28;20289;-61
2022/01/21 09:04:46;;;;;;;2.87;2.10;;;;;;;3.35;100.00;99783.31;5093374;28;20212;-59
2022/01/21 09:07:12;;;;;;;3.43;2.10;;;;;;;3.23;100.00;99787.56;5093035;28;20196;-59
2022/01/21 09:09:41;;;;;;;2.57;1.77;;;;;;;3.15;100.00;99778.09;5086524;28;20241;-59
2022/01/21 09:12:08;;;;;;;3.77;2.60;;;;;;;3.09;100.00;99778.91;5092724;28;20737;-58
2022/01/21 09:14:35;;;;;;;3.03;2.13;;;;;;;3.00;100.00;99778.00;5092988;28;20191;-60
2022/01/21 09:17:02;;;;;;;2.30;2.00;;;;;;;2.89;100.00;99788.22;5092776;28;20649;-59
2022/01/21 09:19:29;;;;;;;2.30;1.83;;;;;;;2.93;100.00;99800.22;5092739;28;20204;-58
2022/01/21 09:21:56;;;;;;;1.93;1.80;;;;;;;2.95;100.00;99780.53;5093223;28;20192;-58
2022/01/21 09:24:23;;;;;;;3.00;1.70;;;;;;;2.93;100.00;99793.34;5093052;28;20209;-59
2022/01/21 09:26:51;;;;;;;1.83;1.73;;;;;;;2.91;100.00;99777.13;5092811;28;20697;-58
2022/01/21 09:29:18;;;;;;;1.80;1.70;;;;;;;3.07;100.00;99792.56;5092624;28;20582;-55
2022/01/21 09:31:45;;;;;;;2.60;2.40;;;;;;;3.16;100.00;99778.09;5092293;28;20731;-55
2022/01/21 09:34:12;;;;;;;2.70;2.50;;;;;;;3.06;100.00;99744.69;5086041;28;20293;-54
2022/01/21 09:36:39;;;;;;;2.93;2.63;;;;;;;3.30;100.00;99765.34;5072299;28;20567;-55
2022/01/21 09:39:07;;;;;;;2.57;2.17;;;;;;;3.35;100.00;99771.38;5071661;28;20293;-55
2022/01/21 09:41:34;;;;;;;2.47;2.23;;;;;;;3.31;100.00;99772.19;5072203;28;20275;-55
2022/01/21 09:44:05;;;;;;;2.60;2.40;;;;;;;3.33;100.00;99751.66;5080954;28;20244;-56
2022/01/21 09:46:36;;;;;;;3.10;2.80;;;;;;;3.38;100.00;99753.41;5087160;28;20214;-56
2022/01/21 09:49:20;;;;;;;4.63;3.10;;;;;;;3.46;100.00;99744.03;5091472;28;20221;-57
2022/01/21 09:51:47;;;;;;;3.33;2.87;;;;;;;3.48;100.00;99749.19;5071711;28;20229;-55
2022/01/21 09:54:14;;;;;;;5.17;3.30;;;;;;;3.53;100.00;99747.47;5071881;28;20196;-55
2022/01/21 09:56:46;;;;;;;12.97;8.03;;;;;;;3.42;100.00;99742.31;5084802;28;20205;-56
2022/01/21 09:59:18;;;;;;;14.60;9.07;;;;;;;3.53;100.00;99732.94;5092155;28;20521;-55
2022/01/21 10:01:49;;;;;;;6.13;4.93;;;;;;;3.60;100.00;99732.13;5080336;28;20211;-55
2022/01/21 10:04:18;;;;;;;4.20;3.40;;;;;;;3.35;100.00;99696.97;5072231;28;20207;-56
2022/01/21 10:06:46;;;;;;;3.40;3.10;;;;;;;3.59;100.00;99721.84;5072661;28;20287;-55
2022/01/21 10:09:15;;;;;;;6.80;3.80;;;;;;;3.69;100.00;99723.56;5071071;28;20229;-55
2022/01/21 10:11:48;;;;;;;9.70;5.00;;;;;;;3.69;100.00;99723.56;5076177;28;20637;-55
2022/01/21 10:14:20;;;;;;;4.63;3.77;;;;;;;3.83;100.00;99714.19;5090118;28;20197;-58
2022/01/21 10:16:48;;;;;;;2.97;2.77;;;;;;;3.88;100.00;99716.75;5091582;28;20204;-55
2022/01/21 10:19:23;;;;;;;2.73;2.53;;;;;;;3.90;100.00;99712.47;5091315;28;20247;-55
2022/01/21 10:21:59;;;;;;;3.47;2.33;;;;;;;3.94;100.00;99729.59;5091185;28;20281;-56
2022/01/21 10:24:26;;;;;;;2.20;2.00;;;;;;;3.88;100.00;99719.31;5091283;28;20208;-56
2022/01/21 10:26:55;;;;;;;2.43;2.20;;;;;;;3.91;100.00;99727.88;5090958;28;20201;-56
2022/01/21 10:29:24;;;;;;;2.67;2.37;;;;;;;3.99;100.00;99728.75;5089511;28;20235;-56
2022/01/21 10:31:53;;;;;;;2.43;2.23;;;;;;;4.07;100.00;99733.00;5091040;28;20233;-58
2022/01/21 10:34:26;;;;;;;2.53;2.03;;;;;;;4.13;100.00;99723.63;5090204;28;20205;-58
2022/01/21 10:36:57;;;;;;;2.43;2.23;;;;;;;4.04;100.00;99728.75;5091084;28;20331;-58
2022/01/21 10:39:30;;;;;;;1.77;1.67;;;;;;;3.99;100.00;99712.47;5091249;28;20202;-58
2022/01/21 10:41:58;;;;;;;2.83;2.40;;;;;;;3.96;100.00;99713.31;5091010;28;20195;-58
2022/01/21 10:44:30;;;;;;;3.07;2.60;;;;;;;3.96;100.00;99721.03;5090831;28;20283;-58
2022/01/21 10:47:06;;;;;;;2.70;2.40;;;;;;;3.81;100.00;99713.31;5090950;28;20650;-58
2022/01/21 10:49:35;;;;;;;5.53;2.43;;;;;;;3.68;100.00;99708.16;5091021;28;20632;-58
2022/01/21 10:52:03;;;;;;;3.43;2.43;;;;;;;3.72;100.00;99700.47;5089318;28;20219;-58
2022/01/21 10:54:30;;;;;;;2.63;2.43;;;;;;;3.83;100.00;99705.63;5090725;28;20232;-58
2022/01/21 10:57:19;;;;;;;2.30;2.10;;;;;;;3.77;100.00;99698.75;5090739;28;20209;-59
2022/01/21 10:59:54;;;;;;;3.07;2.33;;;;;;;3.84;100.00;99702.19;5087599;28;20220;-58
2022/01/21 11:02:33;;;;;;;2.83;2.20;;;;;;;3.93;100.00;99702.22;5090443;28;20240;-58
2022/01/21 11:05:03;;;;;;;11.83;2.30;;;;;;;3.97;100.00;99699.63;5089041;28;20691;-58
2022/01/21 11:07:56;;;;;;;3.03;2.53;;;;;;;3.97;100.00;99709.03;5090257;28;20229;-59
2022/01/21 11:10:47;;;;;;;3.33;2.00;;;;;;;4.06;100.00;99703.94;5088908;28;20221;-56
2022/01/21 11:13:32;;;;;;;2.80;2.53;;;;;;;4.15;100.00;99705.66;5087551;28;20314;-56
2022/01/21 11:16:06;;;;;;;4.53;2.37;;;;;;;4.22;100.00;99704.78;5088143;28;20283;-55
2022/01/21 11:18:33;;;;;;;2.77;2.47;;;;;;;4.20;100.00;99697.06;5087711;28;20642;-55
2022/01/21 11:21:07;;;;;;;2.47;2.27;;;;;;;4.25;100.00;99699.66;5090393;28;20252;-56
2022/01/21 11:23:36;;;;;;;2.40;2.13;;;;;;;4.23;100.00;99688.50;5090575;28;20194;-58
2022/01/21 11:26:09;;;;;;;4.30;2.50;;;;;;;4.32;100.00;99689.34;5090465;28;20198;-58
2022/01/21 11:28:41;;;;;;;3.17;2.87;;;;;;;4.30;100.00;99685.06;5090474;28;20245;-59
2022/01/21 11:31:10;;;;;;;2.93;2.00;;;;;;;4.36;100.00;99685.94;5089997;28;20222;-56
2022/01/21 11:33:37;;;;;;;4.07;1.80;;;;;;;4.20;100.00;99630.28;5090833;28;20194;-56
2022/01/21 11:36:06;;;;;;;4.13;2.00;;;;;;;4.38;100.00;99684.22;5090764;28;20282;-56
2022/01/21 11:38:37;;;;;;;6.63;2.70;;;;;;;4.38;100.00;99676.50;5090776;28;20195;-57
2022/01/21 11:41:05;;;;;;;2.73;2.50;;;;;;;4.45;100.00;99672.22;5090457;28;20235;-58
2022/01/21 11:43:33;;;;;;;3.67;2.50;;;;;;;4.54;99.12;99676.47;5090888;28;20195;-56
2022/01/21 11:46:19;;;;;;;7.80;3.03;;;;;;;4.56;98.05;99674.75;5090677;28;20245;-56
2022/01/21 11:48:51;;;;;;;7.83;2.30;;;;;;;4.58;97.49;99678.19;5090571;28;20349;-58
2022/01/21 11:51:21;;;;;;;4.03;1.90;;;;;;;4.57;97.03;99677.31;5090375;28;20318;-57
2022/01/21 11:53:50;;;;;;;6.00;2.20;;;;;;;4.61;98.36;99683.34;5090559;28;20194;-55
2022/01/21 11:56:31;;;;;;;2.53;2.17;;;;;;;4.52;98.03;99673.03;5090403;28;20191;-60
2022/01/21 11:59:07;;;;;;;2.57;2.37;;;;;;;4.69;96.37;99661.03;5090353;28;20203;-60
2022/01/21 12:01:38;;;;;;;2.03;1.90;;;;;;;4.57;95.99;99663.63;5090568;28;20229;-57
2022/01/21 12:04:07;;;;;;;2.27;1.70;;;;;;;4.58;97.02;99653.34;5090373;28;20233;-58
2022/01/21 12:06:35;;;;;;;2.80;2.30;;;;;;;4.51;97.29;99667.06;5090585;28;20195;-58
2022/01/21 12:09:04;;;;;;;4.77;2.50;;;;;;;4.38;98.28;99657.66;5090222;28;20192;-59
2022/01/21 12:11:35;;;;;;;3.97;2.30;;;;;;;4.26;98.93;99655.97;5090118;28;20280;-59
2022/01/21 12:14:06;;;;;;;4.10;2.30;;;;;;;4.19;99.30;99658.53;5090399;28;20229;-59